Terminal Aerodrome Forecast
Issued by NWS Boston, MA

Home | Current Version | Previous Version | Text Only | Print | Product List | Glossary On
Versions: 1 2 3 4 5 6 7 8 9 10 11 12 13 14 15 16 17
000
FTUS41 KBOX 050537
TAFORH
TAF
KORH 050537Z 0506/0606 03008G16KT 1SM -DZ BR OVC002
     FM051000 03008KT 5SM BR OVC008
     FM051400 03009KT P6SM VCSH OVC015
     FM051800 04010G25KT P6SM VCSH OVC015=

USA.gov is the U.S. government's official web portal to all federal, state and local government web resources and services.